sensor_id;sensor_type;location;lat;lon;timestamp;temperature;humidity
27492;DHT22;14927;51.210;6.838;2023-01-10T00:02:41;11.40;64.70
27492;DHT22;14927;51.210;6.838;2023-01-10T00:05:26;11.40;64.70
27492;DHT22;14927;51.210;6.838;2023-01-10T00:08:15;11.40;64.80
27492;DHT22;14927;51.210;6.838;2023-01-10T00:10:59;11.40;64.80
27492;DHT22;14927;51.210;6.838;2023-01-10T00:14:05;11.40;64.70
27492;DHT22;14927;51.210;6.838;2023-01-10T00:16:50;11.40;64.70
27492;DHT22;14927;51.210;6.838;2023-01-10T00:19:35;11.40;64.70
27492;DHT22;14927;51.210;6.838;2023-01-10T00:22:19;11.40;64.60
27492;DHT22;14927;51.210;6.838;2023-01-10T00:25:08;11.40;64.70
27492;DHT22;14927;51.210;6.838;2023-01-10T00:27:53;11.40;64.70
27492;DHT22;14927;51.210;6.838;2023-01-10T00:30:57;11.40;64.60
27492;DHT22;14927;51.210;6.838;2023-01-10T00:33:47;11.40;64.60
27492;DHT22;14927;51.210;6.838;2023-01-10T00:36:32;11.40;64.60
27492;DHT22;14927;51.210;6.838;2023-01-10T00:39:17;11.40;64.60
27492;DHT22;14927;51.210;6.838;2023-01-10T00:42:04;11.40;64.60
27492;DHT22;14927;51.210;6.838;2023-01-10T00:45:08;11.40;64.50
27492;DHT22;14927;51.210;6.838;2023-01-10T00:47:54;11.40;64.40
27492;DHT22;14927;51.210;6.838;2023-01-10T00:50:40;11.40;64.40
27492;DHT22;14927;51.210;6.838;2023-01-10T00:53:24;11.40;64.40
27492;DHT22;14927;51.210;6.838;2023-01-10T00:56:10;11.40;64.40
27492;DHT22;14927;51.210;6.838;2023-01-10T00:58:54;11.50;64.40
27492;DHT22;14927;51.210;6.838;2023-01-10T01:01:39;11.40;64.40
27492;DHT22;14927;51.210;6.838;2023-01-10T01:04:24;11.40;64.30
27492;DHT22;14927;51.210;6.838;2023-01-10T01:07:09;11.40;64.30
27492;DHT22;14927;51.210;6.838;2023-01-10T01:09:53;11.40;64.20
27492;DHT22;14927;51.210;6.838;2023-01-10T01:12:59;11.40;64.20
27492;DHT22;14927;51.210;6.838;2023-01-10T01:15:49;11.40;64.20
27492;DHT22;14927;51.210;6.838;2023-01-10T01:18:35;11.40;64.20
27492;DHT22;14927;51.210;6.838;2023-01-10T01:21:19;11.40;64.20
27492;DHT22;14927;51.210;6.838;2023-01-10T01:24:04;11.40;64.20
27492;DHT22;14927;51.210;6.838;2023-01-10T01:26:49;11.40;64.20
27492;DHT22;14927;51.210;6.838;2023-01-10T01:29:34;11.40;64.20
27492;DHT22;14927;51.210;6.838;2023-01-10T01:32:19;11.40;64.20
27492;DHT22;14927;51.210;6.838;2023-01-10T01:35:05;11.40;64.10
27492;DHT22;14927;51.210;6.838;2023-01-10T01:37:55;11.40;64.00
27492;DHT22;14927;51.210;6.838;2023-01-10T01:40:40;11.40;63.90
27492;DHT22;14927;51.210;6.838;2023-01-10T01:43:29;11.40;63.90
27492;DHT22;14927;51.210;6.838;2023-01-10T01:46:18;11.40;63.80
27492;DHT22;14927;51.210;6.838;2023-01-10T01:49:03;11.40;63.70
27492;DHT22;14927;51.210;6.838;2023-01-10T01:51:56;11.40;63.70
27492;DHT22;14927;51.210;6.838;2023-01-10T01:54:46;11.40;63.70
27492;DHT22;14927;51.210;6.838;2023-01-10T01:57:31;11.40;63.70
27492;DHT22;14927;51.210;6.838;2023-01-10T02:00:16;11.40;63.80
27492;DHT22;14927;51.210;6.838;2023-01-10T02:03:02;11.50;63.70
27492;DHT22;14927;51.210;6.838;2023-01-10T02:05:49;11.40;63.50
27492;DHT22;14927;51.210;6.838;2023-01-10T02:08:43;11.50;63.40
27492;DHT22;14927;51.210;6.838;2023-01-10T02:11:29;11.40;63.10
27492;DHT22;14927;51.210;6.838;2023-01-10T02:14:14;11.50;63.20
27492;DHT22;14927;51.210;6.838;2023-01-10T02:16:59;11.50;63.10
27492;DHT22;14927;51.210;6.838;2023-01-10T02:19:53;11.50;63.10
27492;DHT22;14927;51.210;6.838;2023-01-10T02:22:48;11.50;62.70
27492;DHT22;14927;51.210;6.838;2023-01-10T02:35:26;11.50;62.30
27492;DHT22;14927;51.210;6.838;2023-01-10T02:38:48;11.50;62.30
27492;DHT22;14927;51.210;6.838;2023-01-10T02:45:23;11.40;62.10
27492;DHT22;14927;51.210;6.838;2023-01-10T02:48:13;11.40;62.00
27492;DHT22;14927;51.210;6.838;2023-01-10T02:51:13;11.60;62.20
27492;DHT22;14927;51.210;6.838;2023-01-10T02:54:11;11.30;61.90
27492;DHT22;14927;51.210;6.838;2023-01-10T02:57:18;11.30;62.00
27492;DHT22;14927;51.210;6.838;2023-01-10T03:06:33;11.20;61.80
27492;DHT22;14927;51.210;6.838;2023-01-10T03:09:33;11.20;61.80
27492;DHT22;14927;51.210;6.838;2023-01-10T03:12:24;11.20;61.70
27492;DHT22;14927;51.210;6.838;2023-01-10T03:15:17;11.10;62.50
27492;DHT22;14927;51.210;6.838;2023-01-10T03:18:07;11.10;61.80
27492;DHT22;14927;51.210;6.838;2023-01-10T03:20:57;11.10;61.70
27492;DHT22;14927;51.210;6.838;2023-01-10T03:23:42;11.10;61.70
27492;DHT22;14927;51.210;6.838;2023-01-10T03:26:35;11.10;61.80
27492;DHT22;14927;51.210;6.838;2023-01-10T03:30:02;11.00;61.70
27492;DHT22;14927;51.210;6.838;2023-01-10T03:32:49;11.00;61.60
27492;DHT22;14927;51.210;6.838;2023-01-10T03:35:58;11.00;61.70
27492;DHT22;14927;51.210;6.838;2023-01-10T03:42:14;10.90;62.00
27492;DHT22;14927;51.210;6.838;2023-01-10T03:45:43;10.90;61.60
27492;DHT22;14927;51.210;6.838;2023-01-10T03:48:37;10.90;61.60
27492;DHT22;14927;51.210;6.838;2023-01-10T03:51:25;10.90;61.70
27492;DHT22;14927;51.210;6.838;2023-01-10T03:54:11;10.80;61.70
27492;DHT22;14927;51.210;6.838;2023-01-10T03:56:59;10.80;61.80
27492;DHT22;14927;51.210;6.838;2023-01-10T03:59:44;10.80;61.80
27492;DHT22;14927;51.210;6.838;2023-01-10T04:02:30;10.70;61.80
27492;DHT22;14927;51.210;6.838;2023-01-10T04:05:15;10.70;61.80
27492;DHT22;14927;51.210;6.838;2023-01-10T04:08:00;10.70;61.90
27492;DHT22;14927;51.210;6.838;2023-01-10T04:10:48;10.70;62.00
27492;DHT22;14927;51.210;6.838;2023-01-10T04:13:32;10.70;62.90
27492;DHT22;14927;51.210;6.838;2023-01-10T04:16:17;10.60;62.20
27492;DHT22;14927;51.210;6.838;2023-01-10T04:19:03;10.60;62.30
27492;DHT22;14927;51.210;6.838;2023-01-10T04:21:47;10.60;62.40
27492;DHT22;14927;51.210;6.838;2023-01-10T04:24:32;10.60;62.40
27492;DHT22;14927;51.210;6.838;2023-01-10T04:27:17;10.60;62.30
27492;DHT22;14927;51.210;6.838;2023-01-10T04:30:03;10.60;62.40
27492;DHT22;14927;51.210;6.838;2023-01-10T04:32:48;10.60;62.40
27492;DHT22;14927;51.210;6.838;2023-01-10T04:35:32;10.60;62.30
27492;DHT22;14927;51.210;6.838;2023-01-10T04:38:18;10.60;62.30
27492;DHT22;14927;51.210;6.838;2023-01-10T04:41:03;10.60;62.40
27492;DHT22;14927;51.210;6.838;2023-01-10T04:43:47;10.60;62.40
27492;DHT22;14927;51.210;6.838;2023-01-10T04:46:32;10.60;62.50
27492;DHT22;14927;51.210;6.838;2023-01-10T04:49:17;10.60;62.50
27492;DHT22;14927;51.210;6.838;2023-01-10T04:52:01;10.60;62.50
27492;DHT22;14927;51.210;6.838;2023-01-10T04:54:46;10.60;62.40
27492;DHT22;14927;51.210;6.838;2023-01-10T04:57:31;10.60;62.40
27492;DHT22;14927;51.210;6.838;2023-01-10T05:00:16;10.60;62.40
27492;DHT22;14927;51.210;6.838;2023-01-10T05:03:00;10.60;62.50
27492;DHT22;14927;51.210;6.838;2023-01-10T05:05:45;10.60;62.40
27492;DHT22;14927;51.210;6.838;2023-01-10T05:08:30;10.60;62.40
27492;DHT22;14927;51.210;6.838;2023-01-10T05:11:15;10.60;62.50
27492;DHT22;14927;51.210;6.838;2023-01-10T05:13:59;10.60;62.40
27492;DHT22;14927;51.210;6.838;2023-01-10T05:16:44;10.60;62.40
27492;DHT22;14927;51.210;6.838;2023-01-10T05:19:29;10.60;62.50
27492;DHT22;14927;51.210;6.838;2023-01-10T05:22:14;10.70;62.50
27492;DHT22;14927;51.210;6.838;2023-01-10T05:24:59;10.70;62.50
27492;DHT22;14927;51.210;6.838;2023-01-10T05:27:43;10.60;62.40
27492;DHT22;14927;51.210;6.838;2023-01-10T05:30:28;10.60;62.40
27492;DHT22;14927;51.210;6.838;2023-01-10T05:33:13;10.70;62.40
27492;DHT22;14927;51.210;6.838;2023-01-10T05:36:01;10.60;62.30
27492;DHT22;14927;51.210;6.838;2023-01-10T05:38:46;10.60;62.30
27492;DHT22;14927;51.210;6.838;2023-01-10T05:41:31;10.60;62.20
27492;DHT22;14927;51.210;6.838;2023-01-10T05:44:16;10.60;62.20
27492;DHT22;14927;51.210;6.838;2023-01-10T05:47:00;10.60;62.20
27492;DHT22;14927;51.210;6.838;2023-01-10T05:49:45;10.60;62.30
27492;DHT22;14927;51.210;6.838;2023-01-10T05:52:30;10.50;62.30
27492;DHT22;14927;51.210;6.838;2023-01-10T05:55:15;10.50;62.30
27492;DHT22;14927;51.210;6.838;2023-01-10T05:57:59;10.50;62.30
27492;DHT22;14927;51.210;6.838;2023-01-10T06:00:44;10.50;62.30
27492;DHT22;14927;51.210;6.838;2023-01-10T06:03:29;10.50;62.30
27492;DHT22;14927;51.210;6.838;2023-01-10T06:06:13;10.50;62.20
27492;DHT22;14927;51.210;6.838;2023-01-10T06:09:00;10.50;62.20
27492;DHT22;14927;51.210;6.838;2023-01-10T06:11:45;10.40;62.20
27492;DHT22;14927;51.210;6.838;2023-01-10T06:14:32;10.40;62.20
27492;DHT22;14927;51.210;6.838;2023-01-10T06:17:17;10.40;62.20
27492;DHT22;14927;51.210;6.838;2023-01-10T06:20:02;10.40;62.30
27492;DHT22;14927;51.210;6.838;2023-01-10T06:22:49;10.40;62.40
27492;DHT22;14927;51.210;6.838;2023-01-10T06:25:36;10.30;62.40
27492;DHT22;14927;51.210;6.838;2023-01-10T06:28:23;10.30;62.50
27492;DHT22;14927;51.210;6.838;2023-01-10T06:31:08;10.30;62.50
27492;DHT22;14927;51.210;6.838;2023-01-10T06:33:53;10.30;62.60
27492;DHT22;14927;51.210;6.838;2023-01-10T06:36:38;10.30;62.60
27492;DHT22;14927;51.210;6.838;2023-01-10T06:39:22;10.30;62.70
27492;DHT22;14927;51.210;6.838;2023-01-10T06:42:07;10.30;62.70
27492;DHT22;14927;51.210;6.838;2023-01-10T06:44:54;10.30;62.80
27492;DHT22;14927;51.210;6.838;2023-01-10T06:47:38;10.30;62.90
27492;DHT22;14927;51.210;6.838;2023-01-10T06:50:23;10.30;63.00
27492;DHT22;14927;51.210;6.838;2023-01-10T06:53:08;10.30;63.00
27492;DHT22;14927;51.210;6.838;2023-01-10T06:55:54;10.30;63.00
27492;DHT22;14927;51.210;6.838;2023-01-10T06:58:40;10.30;63.00
27492;DHT22;14927;51.210;6.838;2023-01-10T07:01:25;10.30;63.00
27492;DHT22;14927;51.210;6.838;2023-01-10T07:04:11;10.30;63.00
27492;DHT22;14927;51.210;6.838;2023-01-10T07:06:55;10.30;63.10
27492;DHT22;14927;51.210;6.838;2023-01-10T07:09:40;10.30;63.10
27492;DHT22;14927;51.210;6.838;2023-01-10T07:12:24;10.30;63.10
27492;DHT22;14927;51.210;6.838;2023-01-10T07:15:10;10.30;63.10
27492;DHT22;14927;51.210;6.838;2023-01-10T07:17:57;10.30;63.00
27492;DHT22;14927;51.210;6.838;2023-01-10T07:20:43;10.30;63.00
27492;DHT22;14927;51.210;6.838;2023-01-10T07:23:28;10.40;63.00
27492;DHT22;14927;51.210;6.838;2023-01-10T07:26:14;10.40;62.90
27492;DHT22;14927;51.210;6.838;2023-01-10T07:29:01;10.40;63.70
27492;DHT22;14927;51.210;6.838;2023-01-10T07:31:49;10.40;62.90
27492;DHT22;14927;51.210;6.838;2023-01-10T07:34:34;10.40;62.90
27492;DHT22;14927;51.210;6.838;2023-01-10T07:37:19;10.40;62.80
27492;DHT22;14927;51.210;6.838;2023-01-10T07:40:04;10.40;62.70
27492;DHT22;14927;51.210;6.838;2023-01-10T07:42:57;10.40;62.60
27492;DHT22;14927;51.210;6.838;2023-01-10T07:45:58;10.40;62.60
27492;DHT22;14927;51.210;6.838;2023-01-10T07:48:43;10.40;62.60
27492;DHT22;14927;51.210;6.838;2023-01-10T07:51:30;10.20;62.40
27492;DHT22;14927;51.210;6.838;2023-01-10T07:54:15;10.40;62.50
27492;DHT22;14927;51.210;6.838;2023-01-10T07:57:00;10.40;62.40
27492;DHT22;14927;51.210;6.838;2023-01-10T07:59:45;10.50;62.40
27492;DHT22;14927;51.210;6.838;2023-01-10T08:02:29;10.50;62.40
27492;DHT22;14927;51.210;6.838;2023-01-10T08:05:15;10.50;62.40
27492;DHT22;14927;51.210;6.838;2023-01-10T08:08:07;10.50;62.40
27492;DHT22;14927;51.210;6.838;2023-01-10T08:10:53;10.60;62.40
27492;DHT22;14927;51.210;6.838;2023-01-10T08:13:38;10.50;62.30
27492;DHT22;14927;51.210;6.838;2023-01-10T08:16:22;10.40;62.20
27492;DHT22;14927;51.210;6.838;2023-01-10T08:19:07;10.50;62.10
27492;DHT22;14927;51.210;6.838;2023-01-10T08:21:53;10.50;62.10
27492;DHT22;14927;51.210;6.838;2023-01-10T08:24:38;10.50;62.10
27492;DHT22;14927;51.210;6.838;2023-01-10T08:27:23;10.50;62.10
27492;DHT22;14927;51.210;6.838;2023-01-10T08:30:08;10.40;62.10
27492;DHT22;14927;51.210;6.838;2023-01-10T08:32:55;10.20;62.00
27492;DHT22;14927;51.210;6.838;2023-01-10T08:35:41;10.40;62.10
27492;DHT22;14927;51.210;6.838;2023-01-10T08:38:26;10.40;62.20
27492;DHT22;14927;51.210;6.838;2023-01-10T08:41:11;10.40;62.10
27492;DHT22;14927;51.210;6.838;2023-01-10T08:43:57;10.40;62.20
27492;DHT22;14927;51.210;6.838;2023-01-10T08:46:42;10.40;62.20
27492;DHT22;14927;51.210;6.838;2023-01-10T08:49:26;10.40;62.20
27492;DHT22;14927;51.210;6.838;2023-01-10T08:52:11;10.40;62.30
27492;DHT22;14927;51.210;6.838;2023-01-10T08:54:56;10.40;62.40
27492;DHT22;14927;51.210;6.838;2023-01-10T08:57:41;10.40;62.50
27492;DHT22;14927;51.210;6.838;2023-01-10T09:00:26;10.50;62.50
27492;DHT22;14927;51.210;6.838;2023-01-10T09:03:11;10.50;62.50
27492;DHT22;14927;51.210;6.838;2023-01-10T09:05:58;10.50;62.40
27492;DHT22;14927;51.210;6.838;2023-01-10T09:08:44;10.50;62.40
27492;DHT22;14927;51.210;6.838;2023-01-10T09:11:28;10.50;62.50
27492;DHT22;14927;51.210;6.838;2023-01-10T09:14:14;10.50;62.40
27492;DHT22;14927;51.210;6.838;2023-01-10T09:16:59;10.60;62.40
27492;DHT22;14927;51.210;6.838;2023-01-10T09:19:44;10.60;62.40
27492;DHT22;14927;51.210;6.838;2023-01-10T09:22:28;10.60;63.10
27492;DHT22;14927;51.210;6.838;2023-01-10T09:25:13;10.60;62.30
27492;DHT22;14927;51.210;6.838;2023-01-10T09:27:59;10.70;62.30
27492;DHT22;14927;51.210;6.838;2023-01-10T09:30:44;10.70;62.20
27492;DHT22;14927;51.210;6.838;2023-01-10T09:33:29;10.70;62.20
27492;DHT22;14927;51.210;6.838;2023-01-10T09:36:14;10.70;62.20
27492;DHT22;14927;51.210;6.838;2023-01-10T09:38:59;10.70;62.20
27492;DHT22;14927;51.210;6.838;2023-01-10T09:41:54;10.70;62.30
27492;DHT22;14927;51.210;6.838;2023-01-10T09:45:24;10.80;62.50
27492;DHT22;14927;51.210;6.838;2023-01-10T09:51:39;10.90;62.20
27492;DHT22;14927;51.210;6.838;2023-01-10T09:54:32;10.90;62.00
27492;DHT22;14927;51.210;6.838;2023-01-10T09:57:21;11.00;62.20
27492;DHT22;14927;51.210;6.838;2023-01-10T10:00:07;11.00;61.90
27492;DHT22;14927;51.210;6.838;2023-01-10T10:02:53;11.00;61.80
27492;DHT22;14927;51.210;6.838;2023-01-10T10:05:40;11.00;62.40
27492;DHT22;14927;51.210;6.838;2023-01-10T10:08:25;11.10;61.60
27492;DHT22;14927;51.210;6.838;2023-01-10T10:11:39;11.10;61.60
27492;DHT22;14927;51.210;6.838;2023-01-10T10:27:22;11.40;61.40
27492;DHT22;14927;51.210;6.838;2023-01-10T10:33:36;11.40;61.10
27492;DHT22;14927;51.210;6.838;2023-01-10T10:36:41;11.50;61.30
27492;DHT22;14927;51.210;6.838;2023-01-10T10:39:44;11.60;61.10
27492;DHT22;14927;51.210;6.838;2023-01-10T10:42:49;11.60;60.90
27492;DHT22;14927;51.210;6.838;2023-01-10T10:46:04;11.70;60.80
27492;DHT22;14927;51.210;6.838;2023-01-10T10:52:28;11.80;60.60
27492;DHT22;14927;51.210;6.838;2023-01-10T10:55:17;11.90;60.50
27492;DHT22;14927;51.210;6.838;2023-01-10T10:58:08;11.90;60.30
27492;DHT22;14927;51.210;6.838;2023-01-10T11:00:55;12.00;60.20
27492;DHT22;14927;51.210;6.838;2023-01-10T11:03:45;12.10;59.90
27492;DHT22;14927;51.210;6.838;2023-01-10T11:06:34;12.10;59.70
27492;DHT22;14927;51.210;6.838;2023-01-10T11:09:23;12.10;59.60
27492;DHT22;14927;51.210;6.838;2023-01-10T11:12:31;12.20;59.50
27492;DHT22;14927;51.210;6.838;2023-01-10T11:15:40;12.20;59.20
27492;DHT22;14927;51.210;6.838;2023-01-10T11:18:30;12.20;58.70
27492;DHT22;14927;51.210;6.838;2023-01-10T11:21:17;12.30;59.10
27492;DHT22;14927;51.210;6.838;2023-01-10T11:24:02;12.40;59.00
27492;DHT22;14927;51.210;6.838;2023-01-10T11:26:50;12.40;58.90
27492;DHT22;14927;51.210;6.838;2023-01-10T11:32:54;12.50;58.30
27492;DHT22;14927;51.210;6.838;2023-01-10T11:36:04;12.50;58.20
27492;DHT22;14927;51.210;6.838;2023-01-10T11:39:01;12.60;58.20
27492;DHT22;14927;51.210;6.838;2023-01-10T11:41:47;12.60;58.20
27492;DHT22;14927;51.210;6.838;2023-01-10T11:44:32;12.70;58.10
27492;DHT22;14927;51.210;6.838;2023-01-10T11:47:20;12.70;58.00
27492;DHT22;14927;51.210;6.838;2023-01-10T11:50:08;12.80;58.00
27492;DHT22;14927;51.210;6.838;2023-01-10T11:52:54;12.80;57.90
27492;DHT22;14927;51.210;6.838;2023-01-10T11:56:10;12.90;58.00
27492;DHT22;14927;51.210;6.838;2023-01-10T11:59:40;12.90;57.40
27492;DHT22;14927;51.210;6.838;2023-01-10T12:03:31;13.00;57.20
27492;DHT22;14927;51.210;6.838;2023-01-10T12:06:24;13.10;57.60
27492;DHT22;14927;51.210;6.838;2023-01-10T12:09:53;13.10;57.30
27492;DHT22;14927;51.210;6.838;2023-01-10T12:13:22;13.20;56.80
27492;DHT22;14927;51.210;6.838;2023-01-10T12:16:43;13.20;56.50
27492;DHT22;14927;51.210;6.838;2023-01-10T12:19:28;13.20;56.40
27492;DHT22;14927;51.210;6.838;2023-01-10T12:22:14;13.20;56.80
27492;DHT22;14927;51.210;6.838;2023-01-10T12:25:01;13.20;56.60
27492;DHT22;14927;51.210;6.838;2023-01-10T12:28:21;13.30;56.60
27492;DHT22;14927;51.210;6.838;2023-01-10T12:31:13;13.20;56.40
27492;DHT22;14927;51.210;6.838;2023-01-10T12:34:00;13.30;56.70
27492;DHT22;14927;51.210;6.838;2023-01-10T12:37:03;13.30;56.90
27492;DHT22;14927;51.210;6.838;2023-01-10T12:39:59;13.40;57.30
27492;DHT22;14927;51.210;6.838;2023-01-10T12:42:54;13.40;56.70
27492;DHT22;14927;51.210;6.838;2023-01-10T12:46:09;13.40;56.40
27492;DHT22;14927;51.210;6.838;2023-01-10T12:49:07;13.40;56.20
27492;DHT22;14927;51.210;6.838;2023-01-10T12:52:03;13.40;55.90
27492;DHT22;14927;51.210;6.838;2023-01-10T12:54:49;13.40;55.80
27492;DHT22;14927;51.210;6.838;2023-01-10T12:57:38;13.50;55.60
27492;DHT22;14927;51.210;6.838;2023-01-10T13:03:35;13.50;55.10
27492;DHT22;14927;51.210;6.838;2023-01-10T13:06:28;13.50;55.30
27492;DHT22;14927;51.210;6.838;2023-01-10T13:09:22;13.50;55.00
27492;DHT22;14927;51.210;6.838;2023-01-10T13:12:25;13.50;54.80
27492;DHT22;14927;51.210;6.838;2023-01-10T13:15:33;13.60;54.20
27492;DHT22;14927;51.210;6.838;2023-01-10T13:18:28;13.60;54.20
27492;DHT22;14927;51.210;6.838;2023-01-10T13:21:17;13.60;54.30
27492;DHT22;14927;51.210;6.838;2023-01-10T13:24:18;13.50;54.30
27492;DHT22;14927;51.210;6.838;2023-01-10T13:27:18;13.50;53.80
27492;DHT22;14927;51.210;6.838;2023-01-10T13:30:04;13.50;53.70
27492;DHT22;14927;51.210;6.838;2023-01-10T13:32:59;13.50;53.90
27492;DHT22;14927;51.210;6.838;2023-01-10T13:35:47;13.50;53.40
27492;DHT22;14927;51.210;6.838;2023-01-10T13:38:47;13.50;53.80
27492;DHT22;14927;51.210;6.838;2023-01-10T13:53:42;13.30;53.90
27492;DHT22;14927;51.210;6.838;2023-01-10T13:56:43;13.30;53.40
27492;DHT22;14927;51.210;6.838;2023-01-10T13:59:59;13.30;53.50
27492;DHT22;14927;51.210;6.838;2023-01-10T14:03:05;13.30;53.70
27492;DHT22;14927;51.210;6.838;2023-01-10T14:05:50;13.30;53.90
27492;DHT22;14927;51.210;6.838;2023-01-10T14:08:40;13.20;53.90
27492;DHT22;14927;51.210;6.838;2023-01-10T14:12:35;13.20;53.90
27492;DHT22;14927;51.210;6.838;2023-01-10T14:22:00;13.10;53.90
27492;DHT22;14927;51.210;6.838;2023-01-10T14:24:52;13.00;53.60
27492;DHT22;14927;51.210;6.838;2023-01-10T14:36:19;12.90;53.70
27492;DHT22;14927;51.210;6.838;2023-01-10T14:40:45;12.90;53.70
27492;DHT22;14927;51.210;6.838;2023-01-10T14:44:05;12.80;53.70
27492;DHT22;14927;51.210;6.838;2023-01-10T14:47:34;12.80;53.70
27492;DHT22;14927;51.210;6.838;2023-01-10T14:50:29;12.70;53.80
27492;DHT22;14927;51.210;6.838;2023-01-10T14:54:10;12.60;53.90
27492;DHT22;14927;51.210;6.838;2023-01-10T14:58:04;12.60;53.70
27492;DHT22;14927;51.210;6.838;2023-01-10T15:00:56;12.80;54.20
27492;DHT22;14927;51.210;6.838;2023-01-10T15:03:45;12.60;54.00
27492;DHT22;14927;51.210;6.838;2023-01-10T15:06:53;12.50;54.00
27492;DHT22;14927;51.210;6.838;2023-01-10T15:09:47;12.50;53.70
27492;DHT22;14927;51.210;6.838;2023-01-10T15:12:33;12.50;53.90
27492;DHT22;14927;51.210;6.838;2023-01-10T15:15:23;12.60;54.10
27492;DHT22;14927;51.210;6.838;2023-01-10T15:18:27;12.40;54.10
27492;DHT22;14927;51.210;6.838;2023-01-10T15:21:31;12.40;54.10
27492;DHT22;14927;51.210;6.838;2023-01-10T15:24:33;12.40;54.20
27492;DHT22;14927;51.210;6.838;2023-01-10T15:27:20;12.40;54.30
27492;DHT22;14927;51.210;6.838;2023-01-10T15:30:07;12.30;54.30
27492;DHT22;14927;51.210;6.838;2023-01-10T15:32:55;12.40;54.30
27492;DHT22;14927;51.210;6.838;2023-01-10T15:35:47;12.30;54.20
27492;DHT22;14927;51.210;6.838;2023-01-10T15:38:35;12.40;54.30
27492;DHT22;14927;51.210;6.838;2023-01-10T15:41:22;12.40;54.30
27492;DHT22;14927;51.210;6.838;2023-01-10T15:50:35;12.30;54.60
27492;DHT22;14927;51.210;6.838;2023-01-10T15:56:50;12.30;55.30
27492;DHT22;14927;51.210;6.838;2023-01-10T15:59:39;12.30;55.30
27492;DHT22;14927;51.210;6.838;2023-01-10T16:02:29;12.30;55.60
27492;DHT22;14927;51.210;6.838;2023-01-10T16:05:16;12.50;56.10
27492;DHT22;14927;51.210;6.838;2023-01-10T16:08:03;12.20;56.20
27492;DHT22;14927;51.210;6.838;2023-01-10T16:10:55;12.20;56.60
27492;DHT22;14927;51.210;6.838;2023-01-10T16:13:41;12.20;56.80
27492;DHT22;14927;51.210;6.838;2023-01-10T16:16:26;12.20;57.10
27492;DHT22;14927;51.210;6.838;2023-01-10T16:19:11;12.20;57.40
27492;DHT22;14927;51.210;6.838;2023-01-10T16:21:57;12.10;57.60
27492;DHT22;14927;51.210;6.838;2023-01-10T16:24:42;12.10;58.00
27492;DHT22;14927;51.210;6.838;2023-01-10T16:27:27;12.10;58.20
27492;DHT22;14927;51.210;6.838;2023-01-10T16:30:33;12.10;58.50
27492;DHT22;14927;51.210;6.838;2023-01-10T16:33:20;12.00;59.00
27492;DHT22;14927;51.210;6.838;2023-01-10T16:36:17;12.00;59.00
27492;DHT22;14927;51.210;6.838;2023-01-10T16:39:05;11.90;59.40
27492;DHT22;14927;51.210;6.838;2023-01-10T16:41:51;11.90;59.60
27492;DHT22;14927;51.210;6.838;2023-01-10T16:44:54;11.90;59.60
27492;DHT22;14927;51.210;6.838;2023-01-10T16:47:39;11.90;59.80
27492;DHT22;14927;51.210;6.838;2023-01-10T16:50:24;11.90;60.20
27492;DHT22;14927;51.210;6.838;2023-01-10T16:53:11;11.90;60.50
27492;DHT22;14927;51.210;6.838;2023-01-10T16:56:00;11.80;60.80
27492;DHT22;14927;51.210;6.838;2023-01-10T16:58:49;11.80;60.90
27492;DHT22;14927;51.210;6.838;2023-01-10T17:01:39;11.80;61.40
27492;DHT22;14927;51.210;6.838;2023-01-10T17:04:27;11.80;61.50
27492;DHT22;14927;51.210;6.838;2023-01-10T17:07:18;11.90;61.50
27492;DHT22;14927;51.210;6.838;2023-01-10T17:10:03;11.70;61.50
27492;DHT22;14927;51.210;6.838;2023-01-10T17:12:48;11.70;61.90
27492;DHT22;14927;51.210;6.838;2023-01-10T17:15:34;11.70;62.30
27492;DHT22;14927;51.210;6.838;2023-01-10T17:18:19;11.60;62.80
27492;DHT22;14927;51.210;6.838;2023-01-10T17:21:05;11.60;63.00
27492;DHT22;14927;51.210;6.838;2023-01-10T17:23:50;11.60;63.10
27492;DHT22;14927;51.210;6.838;2023-01-10T17:26:35;11.50;63.00
27492;DHT22;14927;51.210;6.838;2023-01-10T17:29:21;11.60;63.30
27492;DHT22;14927;51.210;6.838;2023-01-10T17:32:06;11.50;63.90
27492;DHT22;14927;51.210;6.838;2023-01-10T17:34:51;11.40;64.20
27492;DHT22;14927;51.210;6.838;2023-01-10T17:37:36;11.40;64.60
27492;DHT22;14927;51.210;6.838;2023-01-10T17:40:20;11.40;64.70
27492;DHT22;14927;51.210;6.838;2023-01-10T17:43:06;11.40;64.90
27492;DHT22;14927;51.210;6.838;2023-01-10T17:45:52;11.60;65.30
27492;DHT22;14927;51.210;6.838;2023-01-10T17:48:37;11.40;65.20
27492;DHT22;14927;51.210;6.838;2023-01-10T17:51:24;11.40;65.30
27492;DHT22;14927;51.210;6.838;2023-01-10T17:54:10;11.40;65.70
27492;DHT22;14927;51.210;6.838;2023-01-10T17:56:54;11.30;65.80
27492;DHT22;14927;51.210;6.838;2023-01-10T17:59:39;11.30;66.00
27492;DHT22;14927;51.210;6.838;2023-01-10T18:02:24;11.30;66.10
27492;DHT22;14927;51.210;6.838;2023-01-10T18:05:08;11.30;66.10
27492;DHT22;14927;51.210;6.838;2023-01-10T18:07:54;11.40;66.10
27492;DHT22;14927;51.210;6.838;2023-01-10T18:10:39;11.30;66.20
27492;DHT22;14927;51.210;6.838;2023-01-10T18:13:23;11.40;66.50
27492;DHT22;14927;51.210;6.838;2023-01-10T18:16:11;11.00;66.60
27492;DHT22;14927;51.210;6.838;2023-01-10T18:18:56;11.20;66.70
27492;DHT22;14927;51.210;6.838;2023-01-10T18:21:41;11.20;66.70
27492;DHT22;14927;51.210;6.838;2023-01-10T18:24:25;11.20;67.10
27492;DHT22;14927;51.210;6.838;2023-01-10T18:27:10;11.20;67.20
27492;DHT22;14927;51.210;6.838;2023-01-10T18:29:54;11.30;67.40
27492;DHT22;14927;51.210;6.838;2023-01-10T18:32:39;11.10;67.60
27492;DHT22;14927;51.210;6.838;2023-01-10T18:35:23;11.10;67.80
27492;DHT22;14927;51.210;6.838;2023-01-10T18:38:09;11.10;67.80
27492;DHT22;14927;51.210;6.838;2023-01-10T18:40:53;11.10;67.90
27492;DHT22;14927;51.210;6.838;2023-01-10T18:43:38;11.10;68.10
27492;DHT22;14927;51.210;6.838;2023-01-10T18:46:23;11.10;68.20
27492;DHT22;14927;51.210;6.838;2023-01-10T18:49:09;11.10;68.40
27492;DHT22;14927;51.210;6.838;2023-01-10T18:51:54;11.00;68.60
27492;DHT22;14927;51.210;6.838;2023-01-10T18:54:39;11.00;68.70
27492;DHT22;14927;51.210;6.838;2023-01-10T18:57:24;11.00;69.00
27492;DHT22;14927;51.210;6.838;2023-01-10T19:00:09;10.90;68.90
27492;DHT22;14927;51.210;6.838;2023-01-10T19:02:54;11.00;69.20
27492;DHT22;14927;51.210;6.838;2023-01-10T19:05:45;11.10;69.50
27492;DHT22;14927;51.210;6.838;2023-01-10T19:08:33;10.90;69.60
27492;DHT22;14927;51.210;6.838;2023-01-10T19:11:38;10.90;69.40
27492;DHT22;14927;51.210;6.838;2023-01-10T19:14:24;10.90;70.20
27492;DHT22;14927;51.210;6.838;2023-01-10T19:17:08;11.00;69.60
27492;DHT22;14927;51.210;6.838;2023-01-10T19:19:53;10.90;69.70
27492;DHT22;14927;51.210;6.838;2023-01-10T19:22:38;10.90;69.80
27492;DHT22;14927;51.210;6.838;2023-01-10T19:25:22;10.90;69.90
27492;DHT22;14927;51.210;6.838;2023-01-10T19:28:07;11.10;70.10